Time;durP1;ratioP1;P1;durP2;ratioP2;P2;SDS_P1;SDS_P2;PMS_P1;PMS_P2;Temp;Humidity;BMP_temperature;BMP_pressure;BME280_temperature;BME280_humidity;BME280_pressure;Samples;Min_cycle;Max_cycle;Signal;HPM_P1;HPM_P2
2022/06/01 00:01:22;;;;;;;15.43;9.90;;;11.00;99.90;;;;;;4996380;28;20528;-77
2022/06/01 00:03:49;;;;;;;13.07;9.20;;;11.00;99.90;;;;;;4992269;28;20058;-79
2022/06/01 00:06:15;;;;;;;16.02;10.35;;;11.00;99.90;;;;;;4993439;28;20053;-79
2022/06/01 00:08:41;;;;;;;15.63;11.15;;;11.00;99.90;;;;;;4992340;28;20058;-79
2022/06/01 00:11:08;;;;;;;13.50;10.38;;;11.00;99.90;;;;;;4993144;28;20058;-79
2022/06/01 00:13:34;;;;;;;15.23;9.98;;;11.00;99.90;;;;;;4993534;28;20052;-79
2022/06/01 00:16:00;;;;;;;13.98;10.38;;;11.00;99.90;;;;;;4995506;28;20054;-79
2022/06/01 00:18:26;;;;;;;12.88;10.02;;;11.00;99.90;;;;;;4992239;28;20548;-80
2022/06/01 00:20:53;;;;;;;14.30;10.00;;;11.00;99.90;;;;;;4993264;28;20098;-79
2022/06/01 00:23:20;;;;;;;16.95;11.23;;;11.00;99.90;;;;;;4975781;28;20344;-78
2022/06/01 00:25:46;;;;;;;15.77;11.32;;;11.00;99.90;;;;;;4992134;28;20076;-80
2022/06/01 00:28:12;;;;;;;17.17;12.15;;;11.00;99.90;;;;;;4994591;28;20073;-78
2022/06/01 00:30:38;;;;;;;17.90;11.90;;;11.00;99.90;;;;;;4995015;28;20050;-77
2022/06/01 00:33:05;;;;;;;18.92;12.30;;;11.00;99.90;;;;;;4993566;28;20133;-78
2022/06/01 00:35:30;;;;;;;17.30;12.13;;;11.00;99.90;;;;;;4992873;28;20419;-78
2022/06/01 00:37:56;;;;;;;14.05;10.85;;;11.00;99.90;;;;;;4991360;28;20057;-80
2022/06/01 00:40:26;;;;;;;13.63;10.60;;;11.00;99.90;;;;;;4991668;28;20061;-78
2022/06/01 00:42:57;;;;;;;12.95;10.93;;;11.00;99.90;;;;;;4992890;28;20054;-79
2022/06/01 00:45:25;;;;;;;16.90;12.88;;;11.00;99.90;;;;;;4999056;28;20054;-79
2022/06/01 00:47:51;;;;;;;17.17;12.05;;;11.00;99.90;;;;;;4993111;28;20053;-79
2022/06/01 00:50:23;;;;;;;14.25;10.77;;;11.00;99.90;;;;;;4991907;28;20046;-78
2022/06/01 00:52:59;;;;;;;15.57;11.95;;;11.00;99.90;;;;;;4992549;28;20108;-78
2022/06/01 00:55:47;;;;;;;13.93;11.18;;;11.00;99.90;;;;;;4991086;28;20486;-78
2022/06/01 00:58:22;;;;;;;16.40;12.80;;;11.00;99.90;;;;;;4992063;28;20585;-78
2022/06/01 01:00:50;;;;;;;17.95;12.98;;;11.00;99.90;;;;;;4991312;28;20133;-79
2022/06/01 01:03:19;;;;;;;14.95;12.35;;;11.00;99.90;;;;;;4993532;28;20450;-78
2022/06/01 01:05:51;;;;;;;16.90;11.90;;;11.00;99.90;;;;;;4975167;28;20129;-77
2022/06/01 01:08:17;;;;;;;21.95;13.77;;;11.00;99.90;;;;;;4992430;28;20564;-77
2022/06/01 01:10:43;;;;;;;15.52;11.90;;;11.00;99.90;;;;;;4992085;28;20133;-78
2022/06/01 01:13:14;;;;;;;15.13;12.15;;;11.00;99.90;;;;;;4992291;28;20050;-78
2022/06/01 01:15:58;;;;;;;23.63;13.13;;;11.00;99.90;;;;;;4992699;28;20093;-75
2022/06/01 01:18:32;;;;;;;19.17;14.32;;;11.00;99.90;;;;;;4991326;28;20105;-78
2022/06/01 01:21:26;;;;;;;22.25;14.65;;;10.90;99.90;;;;;;4991012;28;20091;-77
2022/06/01 01:24:07;;;;;;;15.35;12.68;;;11.00;99.90;;;;;;4992019;28;20506;-77
2022/06/01 01:26:34;;;;;;;20.95;14.10;;;11.00;99.90;;;;;;4992158;28;20042;-79
2022/06/01 01:29:09;;;;;;;20.05;13.18;;;10.90;99.90;;;;;;4994672;28;20054;-78
2022/06/01 01:31:35;;;;;;;18.73;13.98;;;10.90;99.90;;;;;;4994987;28;20054;-78
2022/06/01 01:34:01;;;;;;;17.02;13.32;;;11.00;99.90;;;;;;4994869;28;20070;-79
2022/06/01 01:36:33;;;;;;;18.30;13.77;;;10.90;99.90;;;;;;4990617;28;20533;-76
2022/06/01 01:39:09;;;;;;;18.60;14.02;;;10.90;99.90;;;;;;4991856;28;20050;-78
2022/06/01 01:41:42;;;;;;;16.77;13.55;;;10.90;99.90;;;;;;4990345;28;20541;-77
2022/06/01 01:44:38;;;;;;;21.25;15.40;;;10.90;99.90;;;;;;4991581;28;20153;-78
2022/06/01 01:47:04;;;;;;;20.60;13.68;;;10.90;99.90;;;;;;4988917;28;20050;-79
2022/06/01 01:49:33;;;;;;;18.40;14.02;;;10.90;99.90;;;;;;4992638;28;20525;-77
2022/06/01 01:52:03;;;;;;;19.13;13.73;;;10.90;99.90;;;;;;4992761;28;20062;-78
2022/06/01 01:54:48;;;;;;;19.33;15.13;;;10.90;99.90;;;;;;4991474;28;20058;-77
2022/06/01 01:57:47;;;;;;;15.67;13.13;;;10.90;99.90;;;;;;4992178;28;20105;-78
2022/06/01 02:00:21;;;;;;;19.73;16.65;;;10.80;99.90;;;;;;4990081;28;20065;-78
2022/06/01 02:03:13;;;;;;;19.58;16.20;;;10.80;99.90;;;;;;4991253;28;20137;-77
2022/06/01 02:06:09;;;;;;;20.40;14.45;;;10.80;99.90;;;;;;4990313;28;20062;-77
2022/06/01 02:08:57;;;;;;;22.40;16.05;;;10.80;99.90;;;;;;4989834;28;20062;-79
2022/06/01 02:14:38;;;;;;;18.67;14.60;;;10.80;99.90;;;;;;4991768;28;20053;-79
2022/06/01 02:17:07;;;;;;;17.23;12.55;;;10.70;99.90;;;;;;4991741;28;20050;-79
2022/06/01 02:19:48;;;;;;;20.33;15.02;;;10.70;99.90;;;;;;4990032;28;20088;-78
2022/06/01 02:22:15;;;;;;;21.98;15.82;;;10.70;99.90;;;;;;4991532;28;20119;-78
2022/06/01 02:24:42;;;;;;;19.92;15.82;;;10.70;99.90;;;;;;4991158;28;20058;-79
2022/06/01 02:27:11;;;;;;;21.75;16.15;;;10.70;99.90;;;;;;4991522;28;20065;-78
2022/06/01 02:29:40;;;;;;;16.83;11.23;;;10.70;99.90;;;;;;4994116;28;20604;-79
2022/06/01 02:32:08;;;;;;;18.13;14.60;;;10.70;99.90;;;;;;4991089;28;20046;-78
2022/06/01 02:34:37;;;;;;;25.67;17.23;;;10.70;99.90;;;;;;4991467;28;20058;-80
2022/06/01 02:37:06;;;;;;;19.88;16.02;;;10.70;99.90;;;;;;5006276;28;20058;-79
2022/06/01 02:39:34;;;;;;;24.77;18.33;;;10.70;99.90;;;;;;4989825;28;20542;-79
2022/06/01 02:42:28;;;;;;;19.83;15.70;;;10.60;99.90;;;;;;4989531;28;20050;-77
2022/06/01 02:44:59;;;;;;;20.98;16.88;;;10.60;99.90;;;;;;4973910;28;20069;-78
2022/06/01 02:47:28;;;;;;;21.23;16.05;;;10.60;99.90;;;;;;4990837;28;20450;-77
2022/06/01 02:49:54;;;;;;;20.35;16.30;;;10.60;99.90;;;;;;4991589;28;20057;-78
2022/06/01 02:52:20;;;;;;;22.50;18.27;;;10.60;99.90;;;;;;4989571;28;20054;-78
2022/06/01 02:54:46;;;;;;;19.65;16.95;;;10.60;99.90;;;;;;4989999;28;20054;-80
2022/06/01 02:57:14;;;;;;;20.42;15.23;;;10.60;99.90;;;;;;4989588;28;20069;-79
2022/06/01 02:59:40;;;;;;;23.33;18.40;;;10.60;99.90;;;;;;4989663;28;20584;-77
2022/06/01 03:02:09;;;;;;;23.63;15.93;;;10.60;99.90;;;;;;4990911;28;20058;-79
2022/06/01 03:04:36;;;;;;;18.95;15.48;;;10.60;99.90;;;;;;4974803;28;20038;-76
2022/06/01 03:07:03;;;;;;;22.30;15.00;;;10.60;99.90;;;;;;4991454;28;20053;-78
2022/06/01 03:09:29;;;;;;;20.48;16.70;;;10.60;99.90;;;;;;4973217;28;20438;-78
2022/06/01 03:11:55;;;;;;;22.63;16.35;;;10.60;99.90;;;;;;4989436;28;20050;-78
2022/06/01 03:14:22;;;;;;;22.52;17.33;;;10.60;99.90;;;;;;4989366;28;20050;-78
2022/06/01 03:16:47;;;;;;;24.73;17.92;;;10.60;99.90;;;;;;4989459;28;20089;-78
2022/06/01 03:19:14;;;;;;;21.35;15.27;;;10.60;99.90;;;;;;4991739;28;20101;-79
2022/06/01 03:21:40;;;;;;;24.38;18.35;;;10.60;99.90;;;;;;4995065;28;20421;-78
2022/06/01 03:24:06;;;;;;;22.08;17.63;;;10.60;99.90;;;;;;4997550;28;20133;-78
2022/06/01 03:26:32;;;;;;;22.95;17.40;;;10.60;99.90;;;;;;4994312;28;20050;-79
2022/06/01 03:28:58;;;;;;;21.63;16.17;;;10.70;99.90;;;;;;4994203;28;20406;-78
2022/06/01 03:31:24;;;;;;;21.30;16.80;;;10.70;99.90;;;;;;5009007;28;20050;-76
2022/06/01 03:33:50;;;;;;;22.38;17.88;;;10.70;99.90;;;;;;4993393;28;20137;-78
2022/06/01 03:36:16;;;;;;;25.48;18.05;;;10.70;99.90;;;;;;4994069;28;20092;-77
2022/06/01 03:38:41;;;;;;;21.13;16.23;;;10.70;99.90;;;;;;4992858;28;20050;-77
2022/06/01 03:41:07;;;;;;;19.70;16.52;;;10.70;99.90;;;;;;4997094;28;20085;-77
2022/06/01 03:46:18;;;;;;;23.42;17.50;;;10.70;99.90;;;;;;4994929;28;20047;-77
2022/06/01 03:48:43;;;;;;;21.05;15.15;;;10.70;99.90;;;;;;4994073;28;20050;-77
2022/06/01 03:51:09;;;;;;;26.15;18.00;;;10.60;99.90;;;;;;4993078;28;20430;-78
2022/06/01 03:53:35;;;;;;;24.23;19.02;;;10.60;99.90;;;;;;4992374;28;20077;-79
2022/06/01 03:56:02;;;;;;;26.45;19.63;;;10.70;99.90;;;;;;4993517;28;20074;-77
2022/06/01 03:58:29;;;;;;;24.80;17.45;;;10.70;99.90;;;;;;4976143;28;20058;-78
2022/06/01 04:00:55;;;;;;;27.13;20.05;;;10.70;99.90;;;;;;4994262;28;20050;-77
2022/06/01 04:03:22;;;;;;;26.27;19.48;;;10.70;99.90;;;;;;4995341;28;20065;-77
2022/06/01 04:05:48;;;;;;;21.25;17.83;;;10.80;99.90;;;;;;4993649;28;20051;-77
2022/06/01 04:08:14;;;;;;;20.25;15.07;;;10.80;99.90;;;;;;4993886;28;20565;-77
2022/06/01 04:10:43;;;;;;;26.27;19.17;;;10.80;99.90;;;;;;4993375;28;20146;-78
2022/06/01 04:13:10;;;;;;;19.92;15.10;;;10.80;99.90;;;;;;4994082;28;20066;-78
2022/06/01 04:15:36;;;;;;;21.50;15.77;;;10.80;99.90;;;;;;4993881;28;20050;-78
2022/06/01 04:18:02;;;;;;;19.10;14.68;;;10.80;99.90;;;;;;4992022;28;20050;-76
2022/06/01 04:20:28;;;;;;;22.10;16.67;;;10.90;99.90;;;;;;4993867;28;20050;-78
2022/06/01 04:22:55;;;;;;;22.63;16.17;;;10.90;99.90;;;;;;4994809;28;20533;-77
2022/06/01 04:25:22;;;;;;;19.00;14.73;;;10.90;99.90;;;;;;4993329;28;20077;-79
2022/06/01 04:27:48;;;;;;;21.23;14.77;;;10.90;99.90;;;;;;4993051;28;20066;-77
2022/06/01 04:30:16;;;;;;;22.17;17.75;;;10.90;99.90;;;;;;4991991;28;20054;-77
2022/06/01 04:32:46;;;;;;;23.85;16.95;;;10.90;99.90;;;;;;4991954;28;20046;-78
2022/06/01 04:35:13;;;;;;;23.15;15.40;;;10.90;99.90;;;;;;4993591;28;20057;-77
2022/06/01 04:37:38;;;;;;;21.85;16.70;;;10.90;99.90;;;;;;4991885;28;20065;-77
2022/06/01 04:40:05;;;;;;;19.42;15.48;;;10.90;99.90;;;;;;4991501;28;20058;-77
2022/06/01 04:42:33;;;;;;;18.80;14.80;;;10.80;99.90;;;;;;4991259;28;20070;-77
2022/06/01 04:44:59;;;;;;;21.35;15.93;;;10.80;99.90;;;;;;4993214;28;20588;-78
2022/06/01 04:47:25;;;;;;;22.13;17.15;;;10.80;99.90;;;;;;4992399;28;20148;-78
2022/06/01 04:49:51;;;;;;;20.95;16.70;;;10.80;99.90;;;;;;4993886;28;20499;-79
2022/06/01 04:52:17;;;;;;;26.35;18.25;;;10.90;99.90;;;;;;4976258;28;20133;-80
2022/06/01 04:54:43;;;;;;;23.80;18.05;;;10.90;99.90;;;;;;4991620;28;20133;-80
2022/06/01 04:57:09;;;;;;;23.75;18.27;;;10.90;99.90;;;;;;4992159;28;20486;-77
2022/06/01 04:59:35;;;;;;;20.73;16.27;;;11.00;99.90;;;;;;4992791;28;20061;-76
2022/06/01 05:02:01;;;;;;;21.25;16.40;;;11.10;99.90;;;;;;4991119;28;20137;-77
2022/06/01 05:04:28;;;;;;;21.33;17.13;;;11.10;99.90;;;;;;4993107;28;20494;-79
2022/06/01 05:06:56;;;;;;;19.65;13.57;;;11.10;99.90;;;;;;4995106;28;20050;-78
2022/06/01 05:09:24;;;;;;;16.38;13.18;;;11.30;99.90;;;;;;4993165;28;20065;-77
2022/06/01 05:11:51;;;;;;;18.50;14.63;;;11.30;99.90;;;;;;4993021;28;20058;-79
2022/06/01 05:14:17;;;;;;;18.67;12.18;;;11.40;99.90;;;;;;5008010;28;20050;-77
2022/06/01 05:16:43;;;;;;;14.65;9.90;;;11.50;99.90;;;;;;5008167;28;20050;-78
2022/06/01 05:19:09;;;;;;;13.63;11.20;;;11.50;99.90;;;;;;4980756;28;20046;-78
2022/06/01 05:21:35;;;;;;;13.68;9.50;;;11.60;99.90;;;;;;5000248;28;20129;-77
2022/06/01 05:24:01;;;;;;;14.75;9.73;;;11.70;99.90;;;;;;4994424;28;20387;-79
2022/06/01 05:26:27;;;;;;;11.15;8.93;;;11.80;99.90;;;;;;4991198;28;20042;-78
2022/06/01 05:28:53;;;;;;;9.98;7.50;;;11.80;99.90;;;;;;4990763;28;20061;-77
2022/06/01 05:31:19;;;;;;;10.23;7.07;;;11.90;99.90;;;;;;4990677;28;20050;-78
2022/06/01 05:33:46;;;;;;;11.63;7.85;;;12.00;99.90;;;;;;4992364;28;20848;-78
2022/06/01 05:36:14;;;;;;;10.27;7.35;;;12.00;99.90;;;;;;4990893;28;20056;-77
2022/06/01 05:38:40;;;;;;;12.73;7.75;;;12.10;99.90;;;;;;4990655;28;20054;-78
2022/06/01 05:41:07;;;;;;;10.90;7.20;;;12.20;99.90;;;;;;4995292;28;20066;-78
2022/06/01 05:43:34;;;;;;;7.82;6.05;;;12.30;99.90;;;;;;4990369;28;20073;-78
2022/06/01 05:46:00;;;;;;;9.65;7.10;;;12.30;99.90;;;;;;4990475;28;20101;-78
2022/06/01 05:48:26;;;;;;;11.48;7.18;;;12.40;99.90;;;;;;4990764;28;20100;-77
2022/06/01 05:50:51;;;;;;;9.25;5.28;;;12.50;99.90;;;;;;4989807;28;20081;-78
2022/06/01 05:53:17;;;;;;;7.10;4.57;;;12.50;99.90;;;;;;4990259;28;20064;-78
2022/06/01 05:55:43;;;;;;;6.72;4.70;;;12.50;99.90;;;;;;4992611;28;20266;-77
2022/06/01 05:58:25;;;;;;;7.15;5.03;;;12.60;99.90;;;;;;4989998;28;20055;-78
2022/06/01 06:00:52;;;;;;;8.55;4.45;;;12.60;99.90;;;;;;4991335;28;20441;-79
2022/06/01 06:03:20;;;;;;;5.88;3.90;;;12.70;99.90;;;;;;4991598;28;20058;-78
2022/06/01 06:08:31;;;;;;;6.30;3.33;;;12.70;99.90;;;;;;4992646;28;20560;-79
2022/06/01 06:10:57;;;;;;;6.53;3.70;;;12.80;99.90;;;;;;4991539;28;20054;-78
2022/06/01 06:13:23;;;;;;;7.65;4.10;;;12.80;99.90;;;;;;4991307;28;20517;-77
2022/06/01 06:15:49;;;;;;;6.32;3.80;;;12.80;99.90;;;;;;4974053;28;20070;-78
2022/06/01 06:18:15;;;;;;;6.90;3.38;;;12.80;99.90;;;;;;4989769;28;20065;-77
2022/06/01 06:20:44;;;;;;;8.27;4.38;;;12.80;99.90;;;;;;4991214;28;20106;-76
2022/06/01 06:23:12;;;;;;;11.38;8.10;;;12.70;99.90;;;;;;4991812;28;20057;-78
2022/06/01 06:25:41;;;;;;;12.00;8.77;;;12.70;99.90;;;;;;4990829;28;20050;-77
2022/06/01 06:28:07;;;;;;;12.70;9.20;;;12.50;99.90;;;;;;4991121;28;20558;-77
2022/06/01 06:30:35;;;;;;;13.38;9.15;;;12.50;99.90;;;;;;4989993;28;20573;-77
2022/06/01 06:33:01;;;;;;;14.15;8.98;;;12.30;99.90;;;;;;4990399;28;20062;-77
2022/06/01 06:35:27;;;;;;;9.57;6.65;;;12.20;99.90;;;;;;4991295;28;20421;-78
2022/06/01 06:37:53;;;;;;;10.35;6.10;;;12.10;99.90;;;;;;4989630;28;20096;-79
2022/06/01 06:40:19;;;;;;;10.73;5.53;;;12.10;99.90;;;;;;4992190;28;20144;-78
2022/06/01 06:42:44;;;;;;;6.97;4.00;;;12.00;99.90;;;;;;4991006;28;20058;-78
2022/06/01 06:45:10;;;;;;;8.27;4.47;;;11.90;99.90;;;;;;4990047;28;20039;-76
2022/06/01 06:47:36;;;;;;;9.93;5.20;;;11.80;99.90;;;;;;4989938;28;20410;-76
2022/06/01 06:50:05;;;;;;;8.65;5.05;;;11.80;99.90;;;;;;4991124;28;20054;-77
2022/06/01 06:52:31;;;;;;;12.10;5.82;;;11.80;99.90;;;;;;4990588;28;20104;-76
2022/06/01 06:54:57;;;;;;;10.15;5.22;;;11.70;99.90;;;;;;4990723;28;20062;-76
2022/06/01 06:57:23;;;;;;;13.30;5.32;;;11.70;99.90;;;;;;4993229;28;20501;-76
2022/06/01 06:59:49;;;;;;;13.43;6.70;;;11.70;99.90;;;;;;4977444;28;20065;-76
2022/06/01 07:02:16;;;;;;;12.25;6.10;;;11.60;99.90;;;;;;4993493;28;20054;-76
2022/06/01 07:04:42;;;;;;;14.93;6.07;;;11.60;99.90;;;;;;4993439;28;20077;-76
2022/06/01 07:07:08;;;;;;;10.15;5.38;;;11.60;99.90;;;;;;4993528;28;20050;-75
2022/06/01 07:09:34;;;;;;;13.88;7.00;;;11.50;99.90;;;;;;4994749;28;20561;-75
2022/06/01 07:12:00;;;;;;;9.40;5.57;;;11.50;99.90;;;;;;4994490;28;20117;-75
2022/06/01 07:14:26;;;;;;;7.25;4.55;;;11.60;99.90;;;;;;4993435;28;20506;-76
2022/06/01 07:16:52;;;;;;;9.00;3.90;;;11.50;99.90;;;;;;4994458;28;20129;-76
2022/06/01 07:19:19;;;;;;;5.38;3.40;;;11.50;99.90;;;;;;4994549;28;20052;-76
2022/06/01 07:21:45;;;;;;;5.97;2.95;;;11.50;99.90;;;;;;4993168;28;20050;-77
2022/06/01 07:24:11;;;;;;;5.13;2.80;;;11.50;99.90;;;;;;4992867;28;20105;-77
2022/06/01 07:26:43;;;;;;;4.07;2.28;;;11.60;99.90;;;;;;4994607;28;20054;-78
2022/06/01 07:29:10;;;;;;;5.15;2.25;;;11.70;99.90;;;;;;4993080;28;20046;-77
2022/06/01 07:31:36;;;;;;;6.05;2.92;;;11.70;99.90;;;;;;4994039;28;20054;-77
2022/06/01 07:34:02;;;;;;;4.95;2.70;;;11.80;99.90;;;;;;4977252;28;20050;-78
2022/06/01 07:36:29;;;;;;;6.07;2.65;;;11.80;99.90;;;;;;4992789;28;20068;-78
2022/06/01 07:44:38;;;;;;;2.10;1.27;;;11.90;99.90;;;;;;4992634;28;20058;-78
2022/06/01 07:47:05;;;;;;;2.88;1.42;;;12.00;99.90;;;;;;4992333;28;20054;-78
2022/06/01 07:49:31;;;;;;;3.40;1.50;;;12.00;99.90;;;;;;4993576;28;20621;-77
2022/06/01 07:51:57;;;;;;;3.55;2.05;;;12.00;99.90;;;;;;4992446;28;20133;-78
2022/06/01 07:54:23;;;;;;;3.50;2.10;;;12.00;99.90;;;;;;4992106;28;20105;-78
2022/06/01 07:56:49;;;;;;;3.85;2.45;;;12.00;99.90;;;;;;4976237;28;20050;-78
2022/06/01 07:59:16;;;;;;;6.20;2.95;;;12.00;99.90;;;;;;4992217;28;20054;-77
2022/06/01 08:01:42;;;;;;;4.95;2.83;;;12.10;99.90;;;;;;4993330;28;20077;-77
2022/06/01 08:04:09;;;;;;;6.88;3.75;;;12.10;99.90;;;;;;4993626;28;20050;-78
2022/06/01 08:06:38;;;;;;;6.40;4.25;;;12.10;99.90;;;;;;4993715;28;20053;-77
2022/06/01 08:09:05;;;;;;;6.47;3.92;;;12.20;99.90;;;;;;4994593;28;20094;-77
2022/06/01 08:14:16;;;;;;;7.93;4.85;;;12.30;99.90;;;;;;4992362;28;20418;-77
2022/06/01 08:16:46;;;;;;;10.98;6.82;;;12.40;99.90;;;;;;4993520;28;20129;-78
2022/06/01 08:19:14;;;;;;;11.77;7.60;;;12.50;99.90;;;;;;4991937;28;20510;-78
2022/06/01 08:21:40;;;;;;;10.68;7.47;;;12.60;99.90;;;;;;4991978;28;20056;-77
2022/06/01 08:24:07;;;;;;;9.90;6.70;;;12.80;99.90;;;;;;4993083;28;20053;-78
2022/06/01 08:26:34;;;;;;;11.15;7.85;;;12.90;99.90;;;;;;4992161;28;20053;-77
2022/06/01 08:29:00;;;;;;;13.35;7.47;;;13.10;99.90;;;;;;4975604;28;20487;-77
2022/06/01 08:31:29;;;;;;;12.00;7.10;;;13.20;99.90;;;;;;4993071;28;20085;-78
2022/06/01 08:33:59;;;;;;;11.85;6.60;;;13.20;99.90;;;;;;4984106;28;20054;-78
2022/06/01 08:36:26;;;;;;;9.32;5.78;;;13.30;99.90;;;;;;4975540;28;20100;-78
2022/06/01 08:38:51;;;;;;;9.55;5.97;;;13.30;99.90;;;;;;4993085;28;20149;-77
2022/06/01 08:41:22;;;;;;;10.75;6.50;;;13.50;99.90;;;;;;4992787;28;20063;-78
2022/06/01 08:43:58;;;;;;;10.18;5.88;;;13.50;99.90;;;;;;4992605;28;20057;-78
2022/06/01 08:46:26;;;;;;;8.68;5.35;;;13.70;99.90;;;;;;4991709;28;20058;-78
2022/06/01 08:49:24;;;;;;;8.98;4.90;;;13.70;99.90;;;;;;4991540;28;20046;-77
2022/06/01 08:51:52;;;;;;;9.63;4.60;;;13.80;99.90;;;;;;4979764;28;20400;-78
2022/06/01 08:54:20;;;;;;;8.63;5.00;;;13.90;99.90;;;;;;4992576;28;20490;-78
2022/06/01 08:56:51;;;;;;;6.55;5.07;;;14.00;99.90;;;;;;4991970;28;20046;-78
2022/06/01 08:59:20;;;;;;;6.90;4.45;;;14.10;99.90;;;;;;4993329;28;20073;-78
2022/06/01 09:02:07;;;;;;;7.78;4.40;;;14.20;99.90;;;;;;4991702;28;20565;-79
2022/06/01 09:04:47;;;;;;;10.07;4.60;;;14.40;99.90;;;;;;4993147;28;20042;-78
2022/06/01 09:07:45;;;;;;;7.60;4.20;;;14.50;99.90;;;;;;4991459;28;20090;-78
2022/06/01 09:10:14;;;;;;;5.22;3.78;;;14.60;99.90;;;;;;4969968;28;20050;-78
2022/06/01 09:12:41;;;;;;;5.38;3.60;;;14.70;99.90;;;;;;4992406;28;20188;-78
2022/06/01 09:15:23;;;;;;;5.95;3.83;;;14.90;99.90;;;;;;4993634;28;20482;-78
2022/06/01 09:17:49;;;;;;;8.63;4.45;;;15.40;99.90;;;;;;4991939;28;20066;-78
2022/06/01 09:23:10;;;;;;;4.20;2.63;;;15.90;99.90;;;;;;4991038;28;20054;-79
2022/06/01 09:25:35;;;;;;;4.78;2.88;;;16.10;99.90;;;;;;4992205;28;20181;-79
2022/06/01 09:28:23;;;;;;;4.45;2.38;;;16.40;99.90;;;;;;4992947;28;20130;-78
2022/06/01 09:31:02;;;;;;;3.17;1.85;;;16.60;99.90;;;;;;4991057;28;20505;-78
2022/06/01 09:33:34;;;;;;;5.43;2.83;;;16.50;99.90;;;;;;4992329;28;20055;-79
2022/06/01 09:36:04;;;;;;;3.50;1.92;;;16.80;99.90;;;;;;4991727;28;20050;-79
2022/06/01 09:38:39;;;;;;;6.20;2.33;;;16.90;99.90;;;;;;4992083;28;20061;-79
2022/06/01 09:41:10;;;;;;;;;;;17.00;99.90;;;;;;4975152;28;20470;-78
2022/06/01 09:43:40;;;;;;;3.55;1.55;;;17.20;99.90;;;;;;4991972;28;19921;-79
2022/06/01 09:46:06;;;;;;;2.67;1.42;;;17.50;99.90;;;;;;4991934;28;20058;-81
2022/06/01 09:48:38;;;;;;;4.45;1.60;;;17.60;99.90;;;;;;4992840;28;20081;-79
2022/06/01 09:51:18;;;;;;;3.88;1.35;;;17.80;99.90;;;;;;4990227;28;20069;-80
2022/06/01 09:53:47;;;;;;;5.45;2.28;;;18.00;99.90;;;;;;4990638;28;20054;-80
2022/06/01 09:56:45;;;;;;;3.03;1.45;;;18.20;99.90;;;;;;4990659;28;20473;-79
2022/06/01 10:07:48;;;;;;;;;;;18.70;99.90;;;;;;4992058;28;20057;-78
2022/06/01 10:10:26;;;;;;;2.58;0.93;;;18.80;99.90;;;;;;4991581;28;20318;-77
2022/06/01 10:12:55;;;;;;;2.03;0.90;;;19.00;99.90;;;;;;4973982;28;20058;-77
2022/06/01 10:15:45;;;;;;;3.67;1.08;;;19.30;99.90;;;;;;4991052;28;20078;-78
2022/06/01 10:18:23;;;;;;;2.40;0.95;;;19.60;99.90;;;;;;4990932;28;20070;-78
2022/06/01 10:21:01;;;;;;;2.85;0.88;;;19.80;99.70;;;;;;4990329;28;20112;-77
2022/06/01 10:24:02;;;;;;;2.10;1.00;;;20.00;97.20;;;;;;4990190;28;20061;-79
2022/06/01 10:26:38;;;;;;;2.03;1.13;;;19.50;97.20;;;;;;4959465;28;20050;-80
2022/06/01 10:29:28;;;;;;;2.78;0.80;;;18.70;96.20;;;;;;4991232;28;20174;-79
2022/06/01 10:32:16;;;;;;;1.50;0.77;;;18.60;96.90;;;;;;4995593;28;20081;-79
2022/06/01 10:34:57;;;;;;;2.03;0.70;;;18.60;98.40;;;;;;4978152;28;20046;-79
2022/06/01 10:37:31;;;;;;;4.30;0.75;;;18.30;99.20;;;;;;4993885;28;20085;-78
2022/06/01 10:40:06;;;;;;;2.40;0.80;;;18.20;99.50;;;;;;4994231;28;20516;-79
2022/06/01 10:43:17;;;;;;;0.95;0.55;;;17.90;99.90;;;;;;4995133;28;20057;-76
2022/06/01 10:45:47;;;;;;;2.00;0.70;;;17.80;99.90;;;;;;4938259;29;20563;-79
2022/06/01 10:48:27;;;;;;;2.05;0.80;;;17.50;99.90;;;;;;4940937;29;20051;-78
2022/06/01 10:50:55;;;;;;;2.38;0.68;;;17.50;99.90;;;;;;4971795;28;20057;-78
2022/06/01 10:53:34;;;;;;;2.63;0.77;;;17.60;99.90;;;;;;4994788;28;20054;-77
2022/06/01 10:56:00;;;;;;;1.63;0.80;;;17.70;99.90;;;;;;4993387;28;20569;-77
2022/06/01 10:58:28;;;;;;;4.50;0.82;;;17.90;99.90;;;;;;4994641;28;20054;-77
2022/06/01 11:01:32;;;;;;;2.78;1.00;;;18.10;99.90;;;;;;4993748;28;20058;-80
2022/06/01 11:04:24;;;;;;;2.03;0.90;;;18.40;99.90;;;;;;4995835;28;20140;-77
2022/06/01 11:06:53;;;;;;;3.30;1.25;;;18.80;99.10;;;;;;4993186;28;20513;-78
2022/06/01 11:09:28;;;;;;;3.97;1.00;;;19.00;99.30;;;;;;4994672;28;20091;-78
2022/06/01 11:12:10;;;;;;;2.53;0.65;;;19.00;98.10;;;;;;4994517;28;20066;-79
2022/06/01 11:14:51;;;;;;;1.52;0.60;;;19.00;97.10;;;;;;4993718;28;20402;-79
2022/06/01 11:17:35;;;;;;;2.50;0.57;;;19.00;98.30;;;;;;4994168;28;20137;-79
2022/06/01 11:20:50;;;;;;;2.75;0.80;;;19.00;96.70;;;;;;4978094;28;20061;-78
2022/06/01 11:23:52;;;;;;;2.93;0.80;;;19.40;96.70;;;;;;4953223;29;20047;-79
2022/06/01 11:26:21;;;;;;;3.67;0.93;;;20.10;95.80;;;;;;4994590;28;20104;-80
2022/06/01 11:28:47;;;;;;;3.08;0.93;;;20.20;97.40;;;;;;4994543;28;20129;-80
2022/06/01 11:31:22;;;;;;;1.63;0.80;;;20.60;95.70;;;;;;4994797;28;20130;-77
2022/06/01 11:34:00;;;;;;;2.42;0.95;;;21.00;94.70;;;;;;4994669;28;20046;-79
2022/06/01 11:37:01;;;;;;;2.00;0.90;;;20.90;92.90;;;;;;4993420;28;20050;-79
2022/06/01 11:39:42;;;;;;;1.60;0.50;;;21.20;92.60;;;;;;5001059;28;20505;-80
2022/06/01 11:42:43;;;;;;;1.83;0.50;;;21.40;92.30;;;;;;4997571;28;20532;-78
2022/06/01 11:45:24;;;;;;;1.00;0.50;;;21.70;93.20;;;;;;4994023;28;20058;-79
2022/06/01 11:47:55;;;;;;;1.75;0.80;;;21.40;91.70;;;;;;4994757;28;20043;-79
2022/06/01 11:50:33;;;;;;;3.25;0.88;;;21.20;92.50;;;;;;4992495;28;20514;-78
2022/06/01 11:52:59;;;;;;;1.45;0.47;;;21.30;93.10;;;;;;4991976;28;20553;-79
2022/06/01 11:55:46;;;;;;;1.80;0.52;;;21.50;94.20;;;;;;4993803;28;20097;-78
2022/06/01 11:58:39;;;;;;;2.72;0.80;;;22.00;92.60;;;;;;4996310;28;20414;-79
2022/06/01 12:01:36;;;;;;;2.63;0.50;;;22.10;92.40;;;;;;4993460;28;20074;-78
2022/06/01 12:04:29;;;;;;;1.95;0.68;;;22.40;91.20;;;;;;4993685;28;20517;-79
2022/06/01 12:07:16;;;;;;;4.53;0.70;;;22.00;91.80;;;;;;4993309;28;20217;-79
2022/06/01 12:09:48;;;;;;;2.47;1.10;;;22.20;90.60;;;;;;4992161;28;20410;-80
2022/06/01 12:12:32;;;;;;;1.55;0.65;;;22.10;92.20;;;;;;4993513;28;20259;-79
2022/06/01 12:15:16;;;;;;;1.63;0.50;;;22.20;90.60;;;;;;4993484;28;20406;-80
2022/06/01 12:18:04;;;;;;;2.03;0.68;;;22.50;90.80;;;;;;4991847;28;20054;-80
2022/06/01 12:20:33;;;;;;;1.33;0.43;;;22.60;86.00;;;;;;4994137;28;20417;-80
2022/06/01 12:28:52;;;;;;;3.38;0.40;;;22.80;91.00;;;;;;4993113;28;20038;-80
2022/06/01 12:31:29;;;;;;;2.03;0.50;;;22.70;90.40;;;;;;4991727;28;20146;-79
2022/06/01 12:34:10;;;;;;;1.70;0.45;;;22.10;86.90;;;;;;4991921;28;20050;-80
2022/06/01 12:36:47;;;;;;;1.42;0.50;;;22.40;90.00;;;;;;4994922;28;20125;-78
2022/06/01 12:39:19;;;;;;;0.52;0.40;;;22.60;89.70;;;;;;4991431;28;20053;-79
2022/06/01 12:41:53;;;;;;;1.75;0.40;;;23.00;90.30;;;;;;4991869;28;20403;-81
2022/06/01 12:44:20;;;;;;;1.30;0.40;;;23.00;89.50;;;;;;4991759;28;20057;-79
2022/06/01 12:46:51;;;;;;;1.10;0.40;;;23.40;85.20;;;;;;4991313;28;20050;-79
2022/06/01 12:49:37;;;;;;;1.60;0.30;;;23.20;86.60;;;;;;4991443;28;20058;-78
2022/06/01 12:52:08;;;;;;;6.57;1.08;;;23.10;81.30;;;;;;4992364;28;20062;-79
2022/06/01 12:55:04;;;;;;;3.45;0.55;;;23.30;88.30;;;;;;4994159;28;20062;-80
2022/06/01 12:57:48;;;;;;;1.58;0.50;;;23.60;81.30;;;;;;4991669;28;20054;-78
2022/06/01 13:00:17;;;;;;;2.92;0.60;;;23.50;80.20;;;;;;4992955;28;20061;-81
2022/06/01 13:02:43;;;;;;;2.47;0.50;;;23.60;83.60;;;;;;4992623;28;20069;-81
2022/06/01 13:05:13;;;;;;;1.38;0.45;;;24.00;84.80;;;;;;4992946;28;20054;-81
2022/06/01 13:07:43;;;;;;;3.67;0.60;;;24.30;88.80;;;;;;4993065;28;20414;-80
2022/06/01 13:10:11;;;;;;;2.55;0.40;;;24.70;85.30;;;;;;4994383;28;20506;-79
2022/06/01 13:12:38;;;;;;;1.75;0.52;;;25.00;75.30;;;;;;4993587;28;20089;-82
2022/06/01 13:15:26;;;;;;;2.25;0.65;;;25.10;77.10;;;;;;5121416;27;1377208;-78
2022/06/01 13:17:59;;;;;;;4.40;0.82;;;25.00;71.90;;;;;;5149872;27;20046;-77
2022/06/01 13:20:37;;;;;;;1.20;0.40;;;25.00;75.00;;;;;;5132279;27;20494;-79
2022/06/01 13:23:25;;;;;;;1.40;0.43;;;25.00;73.30;;;;;;5131447;27;20051;-78
2022/06/01 13:25:52;;;;;;;1.90;0.43;;;25.60;75.80;;;;;;5133924;27;20090;-79
2022/06/01 13:28:19;;;;;;;1.95;0.43;;;25.70;74.30;;;;;;5132638;27;20051;-81
2022/06/01 13:30:46;;;;;;;1.00;0.32;;;25.60;66.70;;;;;;5131108;27;20054;-81
2022/06/01 13:33:38;;;;;;;1.23;0.35;;;25.40;66.60;;;;;;5131068;27;20046;-81
2022/06/01 13:36:10;;;;;;;0.98;0.30;;;25.30;65.70;;;;;;5149857;27;20502;-79